createdAt,value
2022-11-18T00:01:55.789Z,9.07
2022-11-18T00:04:28.365Z,10.23
2022-11-18T00:07:01.687Z,6.47
2022-11-18T00:09:34.201Z,7.15
2022-11-18T00:12:27.225Z,9.30
2022-11-18T00:14:59.819Z,9.73
2022-11-18T00:17:33.289Z,8.93
2022-11-18T00:20:06.161Z,11.05
2022-11-18T00:22:39.074Z,8.02
2022-11-18T00:25:11.565Z,10.07
2022-11-18T00:27:44.333Z,8.98
2022-11-18T00:30:17.479Z,7.72
2022-11-18T00:32:50.217Z,8.70
2022-11-18T00:35:23.021Z,13.77
2022-11-18T00:37:55.794Z,9.02
2022-11-18T00:40:28.281Z,13.70
2022-11-18T00:43:01.383Z,10.00
2022-11-18T00:45:33.964Z,12.18
2022-11-18T00:48:06.730Z,11.18
2022-11-18T00:50:39.162Z,11.20
2022-11-18T00:53:11.897Z,12.63
2022-11-18T00:55:44.566Z,11.15
2022-11-18T00:58:17.774Z,10.88
2022-11-18T01:00:52.635Z,10.38
2022-11-18T01:03:25.749Z,9.38
2022-11-18T01:05:58.374Z,10.05
2022-11-18T01:08:31.137Z,10.90
2022-11-18T01:11:22.021Z,10.18
2022-11-18T01:13:54.989Z,11.02
2022-11-18T01:16:28.309Z,11.75
2022-11-18T01:19:01.437Z,9.35
2022-11-18T01:21:34.076Z,11.70
2022-11-18T01:24:06.971Z,11.57
2022-11-18T01:26:39.441Z,9.43
2022-11-18T01:29:12.196Z,11.25
2022-11-18T01:32:01.933Z,10.95
2022-11-18T01:34:37.381Z,10.40
2022-11-18T01:37:09.995Z,10.70
2022-11-18T01:39:42.752Z,9.43
2022-11-18T01:42:16.967Z,9.48
2022-11-18T01:45:00.626Z,10.73
2022-11-18T01:47:39.891Z,9.93
2022-11-18T01:50:14.635Z,9.90
2022-11-18T01:52:51.619Z,8.48
2022-11-18T01:55:28.348Z,10.90
2022-11-18T01:58:15.934Z,9.57
2022-11-18T02:00:48.679Z,9.18
2022-11-18T02:03:22.079Z,8.95
2022-11-18T02:05:55.644Z,8.75
2022-11-18T02:08:30.718Z,9.23
2022-11-18T02:11:30.686Z,9.00
2022-11-18T02:14:05.898Z,9.85
2022-11-18T02:17:05.982Z,11.27
2022-11-18T02:19:47.410Z,9.65
2022-11-18T02:22:38.802Z,10.07
2022-11-18T02:25:30.093Z,10.60
2022-11-18T02:28:41.451Z,9.25
2022-11-18T02:31:54.038Z,8.77
2022-11-18T02:34:35.665Z,9.80
2022-11-18T02:37:39.086Z,8.75
2022-11-18T02:40:12.277Z,9.07
2022-11-18T02:42:49.808Z,9.88
2022-11-18T02:45:23.631Z,9.65
2022-11-18T02:47:57.742Z,9.60
2022-11-18T02:50:32.244Z,9.43
2022-11-18T02:53:07.493Z,9.55
2022-11-18T02:55:42.034Z,11.25
2022-11-18T02:58:17.678Z,9.65
2022-11-18T03:00:59.018Z,9.48
2022-11-18T03:03:34.351Z,8.95
2022-11-18T03:06:33.729Z,8.65
2022-11-18T03:09:24.806Z,5.90
2022-11-18T03:12:31.510Z,8.68
2022-11-18T03:15:13.526Z,6.90
2022-11-18T03:17:52.434Z,6.32
2022-11-18T03:20:36.813Z,6.50
2022-11-18T03:23:21.304Z,6.38
2022-11-18T03:26:01.211Z,6.35
2022-11-18T03:28:44.776Z,6.00
2022-11-18T03:31:26.307Z,5.07
2022-11-18T03:34:19.156Z,5.07
2022-11-18T03:37:00.733Z,3.65
2022-11-18T03:39:37.655Z,3.38
2022-11-18T03:42:21.872Z,4.28
2022-11-18T03:45:31.214Z,4.18
2022-11-18T03:48:15.100Z,3.47
2022-11-18T03:51:01.457Z,2.83
2022-11-18T03:53:37.527Z,3.50
2022-11-18T03:56:17.602Z,3.15
2022-11-18T03:59:16.438Z,3.83
2022-11-18T04:02:17.761Z,3.30
2022-11-18T04:04:52.912Z,3.35
2022-11-18T04:07:40.085Z,3.20
2022-11-18T04:10:22.127Z,2.92
2022-11-18T04:13:06.943Z,3.40
2022-11-18T04:15:41.948Z,2.63
2022-11-18T04:18:14.803Z,3.38
2022-11-18T04:20:47.285Z,2.72
2022-11-18T04:23:20.034Z,2.50
2022-11-18T04:25:52.513Z,2.88
2022-11-18T04:28:25.237Z,2.85
2022-11-18T04:30:57.726Z,2.90
2022-11-18T04:33:30.526Z,3.20
2022-11-18T04:36:03.053Z,3.65
2022-11-18T04:38:35.842Z,2.55
2022-11-18T04:41:08.406Z,3.65
2022-11-18T04:43:41.871Z,2.90
2022-11-18T04:46:14.314Z,3.67
2022-11-18T04:48:47.064Z,3.70
2022-11-18T04:51:19.517Z,3.35
2022-11-18T04:53:52.325Z,3.35
2022-11-18T04:56:24.813Z,3.97
2022-11-18T04:59:02.444Z,3.30
2022-11-18T05:01:35.125Z,3.95
2022-11-18T05:04:12.058Z,3.53
2022-11-18T05:06:45.207Z,3.00
2022-11-18T05:09:18.545Z,4.07
2022-11-18T05:12:09.577Z,3.35
2022-11-18T05:14:46.704Z,3.58
2022-11-18T05:17:22.405Z,3.05
2022-11-18T05:19:55.193Z,3.05
2022-11-18T05:22:27.700Z,3.20
2022-11-18T05:25:03.687Z,3.20
2022-11-18T05:27:36.152Z,3.40
2022-11-18T05:30:09.633Z,4.57
2022-11-18T05:32:43.569Z,3.72
2022-11-18T05:35:16.389Z,3.80
2022-11-18T05:37:48.830Z,2.67
2022-11-18T05:40:21.556Z,2.90
2022-11-18T05:43:12.057Z,3.33
2022-11-18T05:45:44.858Z,3.85
2022-11-18T05:48:18.280Z,6.00
2022-11-18T05:50:53.422Z,6.32
2022-11-18T05:53:25.897Z,4.72
2022-11-18T05:56:17.208Z,4.85
2022-11-18T05:58:49.727Z,4.18
2022-11-18T06:01:30.574Z,3.78
2022-11-18T06:04:07.674Z,3.45
2022-11-18T06:06:40.940Z,4.65
2022-11-18T06:09:17.090Z,3.67
2022-11-18T06:11:55.345Z,4.30
2022-11-18T06:14:30.415Z,3.63
2022-11-18T06:17:06.756Z,3.78
2022-11-18T06:19:39.613Z,4.82
2022-11-18T06:22:12.837Z,4.25
2022-11-18T06:24:45.626Z,4.35
2022-11-18T06:27:19.059Z,2.67
2022-11-18T06:29:51.535Z,4.10
2022-11-18T06:32:24.296Z,3.63
2022-11-18T06:34:59.226Z,3.38
2022-11-18T06:37:34.881Z,3.95
2022-11-18T06:40:08.043Z,3.92
2022-11-18T06:42:59.481Z,4.00
2022-11-18T06:45:31.997Z,4.32
2022-11-18T06:48:04.937Z,2.35
2022-11-18T06:50:37.510Z,4.10
2022-11-18T06:53:10.506Z,4.03
2022-11-18T06:55:43.014Z,2.35
2022-11-18T06:58:15.746Z,3.83
2022-11-18T07:00:48.273Z,4.32
2022-11-18T07:03:21.066Z,4.75
2022-11-18T07:05:53.535Z,5.75
2022-11-18T07:08:26.262Z,2.42
2022-11-18T07:10:58.731Z,4.03
2022-11-18T07:13:32.778Z,3.60
2022-11-18T07:16:08.050Z,7.82
2022-11-18T07:18:42.101Z,5.72
2022-11-18T07:21:22.891Z,7.45
2022-11-18T07:23:56.954Z,4.80
2022-11-18T07:26:29.461Z,9.05
2022-11-18T07:29:02.628Z,5.68
2022-11-18T07:31:39.021Z,8.23
2022-11-18T07:34:13.310Z,5.88
2022-11-18T07:36:45.855Z,4.38
2022-11-18T07:39:18.839Z,5.00
2022-11-18T07:41:51.473Z,5.20
2022-11-18T07:44:24.225Z,4.75
2022-11-18T07:46:56.711Z,5.28
2022-11-18T07:49:29.429Z,4.85
2022-11-18T07:52:02.042Z,4.85
2022-11-18T07:54:34.828Z,5.45
2022-11-18T07:57:07.281Z,4.55
2022-11-18T07:59:39.998Z,5.68
2022-11-18T08:02:13.117Z,4.72
2022-11-18T08:04:46.060Z,4.07
2022-11-18T08:07:18.640Z,4.10
2022-11-18T08:09:51.442Z,3.75
2022-11-18T08:12:23.944Z,5.72
2022-11-18T08:14:57.307Z,5.07
2022-11-18T08:17:29.826Z,4.07
2022-11-18T08:20:02.673Z,5.53
2022-11-18T08:22:35.255Z,3.90
2022-11-18T08:25:14.522Z,3.85
2022-11-18T08:27:47.065Z,3.17
2022-11-18T08:30:19.973Z,4.10
2022-11-18T08:32:52.465Z,3.55
2022-11-18T08:35:29.626Z,3.70
2022-11-18T08:38:02.166Z,4.45
2022-11-18T08:40:34.915Z,4.20
2022-11-18T08:43:09.153Z,4.32
2022-11-18T08:45:42.150Z,3.30
2022-11-18T08:48:14.612Z,3.65
2022-11-18T08:50:47.463Z,4.20
2022-11-18T08:53:19.902Z,4.55
2022-11-18T08:55:57.559Z,4.15
2022-11-18T08:58:30.637Z,5.05
2022-11-18T09:01:07.434Z,2.72
2022-11-18T09:03:40.215Z,3.10
2022-11-18T09:06:22.705Z,2.60
2022-11-18T09:08:55.350Z,3.15
2022-11-18T09:11:28.349Z,3.28
2022-11-18T09:15:06.402Z,2.50
2022-11-18T09:16:59.794Z,2.85
2022-11-18T09:19:50.023Z,2.60
2022-11-18T09:22:22.554Z,4.15
2022-11-18T09:24:55.293Z,4.03
2022-11-18T09:27:27.803Z,4.28
2022-11-18T09:30:00.661Z,2.60
2022-11-18T09:32:34.008Z,1.80
2022-11-18T09:35:06.874Z,1.95
2022-11-18T09:37:39.491Z,1.85
2022-11-18T09:40:18.808Z,1.77
2022-11-18T09:43:26.510Z,2.75
2022-11-18T09:46:08.454Z,3.00
2022-11-18T09:48:59.431Z,1.80
2022-11-18T09:51:39.019Z,2.83
2022-11-18T09:54:22.908Z,1.75
2022-11-18T09:56:56.432Z,2.10
2022-11-18T09:59:32.343Z,2.17
2022-11-18T10:02:14.158Z,1.65
2022-11-18T10:04:46.743Z,2.22
2022-11-18T10:07:27.853Z,1.83
2022-11-18T10:10:11.058Z,2.05
2022-11-18T10:12:58.758Z,1.50
2022-11-18T10:15:43.939Z,1.58
2022-11-18T10:18:59.864Z,1.15
2022-11-18T10:21:58.433Z,0.73
2022-11-18T10:24:39.481Z,1.27
2022-11-18T10:27:15.056Z,1.15
2022-11-18T10:29:58.398Z,1.60
2022-11-18T10:32:30.877Z,1.70
2022-11-18T10:35:03.768Z,1.02
2022-11-18T10:38:07.443Z,1.70
2022-11-18T10:40:32.329Z,1.30
2022-11-18T10:43:04.798Z,1.27
2022-11-18T10:45:37.574Z,1.40
2022-11-18T10:48:19.752Z,1.38
2022-11-18T10:50:56.135Z,2.15
2022-11-18T10:53:38.673Z,3.05
2022-11-18T10:56:16.135Z,1.63
2022-11-18T10:58:50.991Z,1.65
2022-11-18T11:01:26.388Z,2.55
2022-11-18T11:04:22.785Z,2.58
2022-11-18T11:06:57.768Z,2.75
2022-11-18T11:09:31.465Z,3.53
2022-11-18T11:12:17.537Z,2.40
2022-11-18T11:15:18.330Z,2.28
2022-11-18T11:18:16.694Z,2.28
2022-11-18T11:20:51.374Z,2.85
2022-11-18T11:23:25.105Z,2.17
2022-11-18T11:29:20.406Z,1.85
2022-11-18T11:31:58.605Z,1.80
2022-11-18T11:34:51.090Z,2.63
2022-11-18T11:37:55.215Z,2.03
2022-11-18T11:40:44.497Z,1.33
2022-11-18T11:43:25.966Z,1.25
2022-11-18T11:47:09.773Z,0.85
2022-11-18T11:50:22.734Z,1.30
2022-11-18T11:53:20.611Z,1.40
2022-11-18T11:56:09.159Z,1.20
2022-11-18T11:59:19.379Z,1.30
2022-11-18T12:02:10.558Z,0.93
2022-11-18T12:04:53.324Z,1.98
2022-11-18T12:07:32.597Z,0.65
2022-11-18T12:10:27.814Z,1.60
2022-11-18T12:13:08.940Z,1.77
2022-11-18T12:15:55.106Z,2.10
2022-11-18T12:18:42.674Z,1.25
2022-11-18T12:21:46.091Z,1.90
2022-11-18T12:24:37.384Z,1.70
2022-11-18T12:27:10.097Z,1.10
2022-11-18T12:29:48.620Z,1.50
2022-11-18T12:32:30.037Z,1.20
2022-11-18T12:35:28.536Z,1.80
2022-11-18T12:38:02.336Z,2.33
2022-11-18T12:40:51.903Z,2.17
2022-11-18T12:43:44.511Z,2.40
2022-11-18T12:46:35.028Z,1.90
2022-11-18T12:49:22.794Z,1.80
2022-11-18T12:52:00.425Z,1.67
2022-11-18T12:54:35.373Z,1.65
2022-11-18T12:57:20.485Z,2.10
2022-11-18T12:59:54.504Z,1.83
2022-11-18T13:02:29.085Z,1.52
2022-11-18T13:05:23.891Z,1.33
2022-11-18T13:08:13.912Z,1.58
2022-11-18T13:11:13.282Z,1.48
2022-11-18T13:13:46.722Z,1.88
2022-11-18T13:16:41.852Z,1.80
2022-11-18T13:19:24.915Z,1.77
2022-11-18T13:22:20.574Z,1.90
2022-11-18T13:24:53.170Z,2.05
2022-11-18T13:27:55.928Z,2.47
2022-11-18T13:30:30.358Z,1.88
2022-11-18T13:33:03.424Z,1.70
2022-11-18T13:35:40.923Z,2.00
2022-11-18T13:38:28.125Z,1.00
2022-11-18T13:41:14.922Z,2.65
2022-11-18T13:43:53.737Z,2.35
2022-11-18T13:46:26.705Z,2.13
2022-11-18T13:49:00.040Z,2.35
2022-11-18T13:51:32.939Z,2.70
2022-11-18T13:54:06.017Z,1.92
2022-11-18T13:56:40.352Z,2.25
2022-11-18T13:59:25.007Z,2.58
2022-11-18T14:02:00.362Z,2.15
2022-11-18T14:04:34.377Z,2.63
2022-11-18T14:07:25.144Z,3.03
2022-11-18T14:10:07.608Z,3.40
2022-11-18T14:12:49.169Z,2.30
2022-11-18T14:15:30.733Z,2.53
2022-11-18T14:18:03.746Z,2.33
2022-11-18T14:20:36.844Z,3.08
2022-11-18T14:23:16.277Z,2.63
2022-11-18T14:25:49.040Z,2.85
2022-11-18T14:28:30.471Z,3.22
2022-11-18T14:31:26.946Z,3.40
2022-11-18T14:34:21.863Z,3.47
2022-11-18T14:36:58.305Z,2.80
2022-11-18T14:39:32.382Z,2.80
2022-11-18T14:42:06.553Z,2.83
2022-11-18T14:44:39.068Z,2.50
2022-11-18T14:47:27.348Z,3.05
2022-11-18T14:49:59.779Z,2.00
2022-11-18T14:52:32.759Z,2.03
2022-11-18T14:55:05.567Z,2.95
2022-11-18T14:57:47.311Z,2.95
2022-11-18T15:00:20.217Z,2.65
2022-11-18T15:02:53.009Z,2.13
2022-11-18T15:05:25.643Z,2.15
2022-11-18T15:07:58.367Z,1.88
2022-11-18T15:10:44.687Z,2.22
2022-11-18T15:13:18.946Z,2.00
2022-11-18T15:15:51.494Z,2.00
2022-11-18T15:18:28.358Z,2.30
2022-11-18T15:21:00.813Z,2.13
2022-11-18T15:23:33.722Z,2.45
2022-11-18T15:26:28.266Z,3.38
2022-11-18T15:29:01.562Z,1.98
2022-11-18T15:31:34.145Z,2.92
2022-11-18T15:34:07.160Z,2.78
2022-11-18T15:36:39.674Z,2.63
2022-11-18T15:39:12.937Z,3.22
2022-11-18T15:41:45.523Z,3.15
2022-11-18T15:44:21.570Z,3.55
2022-11-18T15:46:55.604Z,3.67
2022-11-18T15:49:28.855Z,4.03
2022-11-18T15:52:01.352Z,4.00
2022-11-18T15:54:34.325Z,4.57
2022-11-18T15:57:06.825Z,4.82
2022-11-18T15:59:39.581Z,3.92
2022-11-18T16:02:12.111Z,4.70
2022-11-18T16:04:44.997Z,5.53
2022-11-18T16:07:17.523Z,5.50
2022-11-18T16:10:08.887Z,5.53
2022-11-18T16:12:47.463Z,4.15
2022-11-18T16:15:38.722Z,4.88
2022-11-18T16:18:11.353Z,5.65
2022-11-18T16:20:44.147Z,4.38
2022-11-18T16:23:16.602Z,5.75
2022-11-18T16:25:50.245Z,4.18
2022-11-18T16:28:22.743Z,4.68
2022-11-18T16:31:14.014Z,3.50
2022-11-18T16:33:46.434Z,3.05
2022-11-18T16:36:28.255Z,3.50
2022-11-18T16:39:08.549Z,3.90
2022-11-18T16:41:42.598Z,3.35
2022-11-18T16:44:16.362Z,4.60
2022-11-18T16:46:51.136Z,3.90
2022-11-18T16:49:26.492Z,3.25
2022-11-18T16:51:59.386Z,3.80
2022-11-18T16:54:33.434Z,4.10
2022-11-18T16:57:06.474Z,3.95
2022-11-18T16:59:39.026Z,4.07
2022-11-18T17:02:14.175Z,6.10
2022-11-18T17:04:46.738Z,7.40
2022-11-18T17:07:19.502Z,6.97
2022-11-18T17:09:52.697Z,6.32
2022-11-18T17:12:25.425Z,5.47
2022-11-18T17:14:57.857Z,2.22
2022-11-18T17:17:30.633Z,3.03
2022-11-18T17:20:03.422Z,2.33
2022-11-18T17:22:36.212Z,2.65
2022-11-18T17:25:08.733Z,5.05
2022-11-18T17:27:41.474Z,3.20
2022-11-18T17:30:14.501Z,3.78
2022-11-18T17:32:47.321Z,2.63
2022-11-18T17:35:19.769Z,2.42
2022-11-18T17:37:52.490Z,4.70
2022-11-18T17:40:25.054Z,3.05
2022-11-18T17:42:57.794Z,5.18
2022-11-18T17:45:30.274Z,5.75
2022-11-18T17:48:03.007Z,3.95
2022-11-18T17:50:35.480Z,4.20
2022-11-18T17:53:08.220Z,3.38
2022-11-18T17:55:41.340Z,4.63
2022-11-18T17:58:14.385Z,2.88
2022-11-18T18:00:46.841Z,3.25
2022-11-18T18:03:19.573Z,3.10
2022-11-18T18:05:51.988Z,3.70
2022-11-18T18:08:24.776Z,3.13
2022-11-18T18:11:04.595Z,3.63
2022-11-18T18:16:30.285Z,2.92
2022-11-18T18:19:05.420Z,4.07
2022-11-18T18:21:38.052Z,3.17
2022-11-18T18:24:14.739Z,1.90
2022-11-18T18:26:47.427Z,2.90
2022-11-18T18:29:20.301Z,4.13
2022-11-18T18:31:52.871Z,3.47
2022-11-18T18:34:25.682Z,4.75
2022-11-18T18:36:58.159Z,4.57
2022-11-18T18:39:30.968Z,3.63
2022-11-18T18:42:04.237Z,3.85
2022-11-18T18:44:55.629Z,2.55
2022-11-18T18:47:28.171Z,4.05
2022-11-18T18:50:00.908Z,4.65
2022-11-18T18:52:33.503Z,5.22
2022-11-18T18:55:06.961Z,4.60
2022-11-18T18:57:39.435Z,6.97
2022-11-18T19:00:13.100Z,6.18
2022-11-18T19:02:45.575Z,8.07
2022-11-18T19:05:18.316Z,5.32
2022-11-18T19:07:50.830Z,5.95
2022-11-18T19:10:23.571Z,4.57
2022-11-18T19:12:56.332Z,5.53
2022-11-18T19:15:29.142Z,4.60
2022-11-18T19:18:04.859Z,5.68
2022-11-18T19:20:37.731Z,4.47
2022-11-18T19:23:12.917Z,4.03
2022-11-18T19:25:45.655Z,4.18
2022-11-18T19:28:18.115Z,5.43
2022-11-18T19:30:50.866Z,5.25
2022-11-18T19:33:23.343Z,5.40
2022-11-18T19:35:56.079Z,5.70
2022-11-18T19:38:28.752Z,6.10
2022-11-18T19:41:09.839Z,5.63
2022-11-18T19:43:42.307Z,4.72
2022-11-18T19:46:15.070Z,6.68
2022-11-18T19:48:48.683Z,5.35
2022-11-18T19:51:21.431Z,6.53
2022-11-18T19:53:58.516Z,5.20
2022-11-18T19:56:32.743Z,6.35
2022-11-18T19:59:05.192Z,6.47
2022-11-18T20:01:38.848Z,6.55
2022-11-18T20:04:11.398Z,5.97
2022-11-18T20:06:45.654Z,8.02
2022-11-18T20:09:18.565Z,8.27
2022-11-18T20:11:51.480Z,7.35
2022-11-18T20:14:24.022Z,6.55
2022-11-18T20:16:56.792Z,6.95
2022-11-18T20:19:29.323Z,7.75
2022-11-18T20:22:02.141Z,6.32
2022-11-18T20:24:34.600Z,8.18
2022-11-18T20:27:07.815Z,7.78
2022-11-18T20:29:40.351Z,8.52
2022-11-18T20:32:13.177Z,10.18
2022-11-18T20:34:47.123Z,11.77
2022-11-18T20:37:23.299Z,7.50
2022-11-18T20:39:59.287Z,9.35
2022-11-18T20:42:52.880Z,11.10
2022-11-18T20:45:25.561Z,13.25
2022-11-18T20:47:58.336Z,12.52
2022-11-18T20:50:31.419Z,12.35
2022-11-18T20:53:05.364Z,14.32
2022-11-18T20:55:38.182Z,12.65
2022-11-18T20:58:10.944Z,11.98
2022-11-18T21:00:44.300Z,11.95
2022-11-18T21:03:18.560Z,9.82
2022-11-18T21:05:51.095Z,10.40
2022-11-18T21:08:23.819Z,11.13
2022-11-18T21:11:04.057Z,10.82
2022-11-18T21:13:55.518Z,8.35
2022-11-18T21:16:28.399Z,6.70
2022-11-18T21:19:01.175Z,8.88
2022-11-18T21:21:45.839Z,9.02
2022-11-18T21:24:21.398Z,7.90
2022-11-18T21:26:55.253Z,7.50
2022-11-18T21:29:30.521Z,8.73
2022-11-18T21:32:03.137Z,9.23
2022-11-18T21:34:36.249Z,6.47
2022-11-18T21:37:08.769Z,8.48
2022-11-18T21:39:41.530Z,8.23
2022-11-18T21:42:14.013Z,10.10
2022-11-18T21:44:46.793Z,6.93
2022-11-18T21:47:19.277Z,10.48
2022-11-18T21:49:52.154Z,8.80
2022-11-18T21:52:24.722Z,9.30
2022-11-18T21:54:57.547Z,7.88
2022-11-18T21:57:30.047Z,8.20
2022-11-18T22:00:02.929Z,10.15
2022-11-18T22:02:35.504Z,7.72
2022-11-18T22:05:09.354Z,8.63
2022-11-18T22:07:41.989Z,6.38
2022-11-18T22:10:14.932Z,7.57
2022-11-18T22:12:48.954Z,8.38
2022-11-18T22:15:21.706Z,6.53
2022-11-18T22:17:54.274Z,6.68
2022-11-18T22:20:27.029Z,6.55
2022-11-18T22:22:59.522Z,6.70
2022-11-18T22:25:32.278Z,7.07
2022-11-18T22:28:04.971Z,5.68
2022-11-18T22:30:37.676Z,7.70
2022-11-18T22:33:10.121Z,6.80
2022-11-18T22:35:42.879Z,6.47
2022-11-18T22:38:15.382Z,6.28
2022-11-18T22:40:48.135Z,6.90
2022-11-18T22:43:20.575Z,6.63
2022-11-18T22:46:08.773Z,6.82
2022-11-18T22:48:41.233Z,6.30
2022-11-18T22:51:14.235Z,6.15
2022-11-18T22:53:46.694Z,7.25
2022-11-18T22:56:19.750Z,5.93
2022-11-18T22:58:56.165Z,6.85
2022-11-18T23:01:28.913Z,6.18
2022-11-18T23:04:03.247Z,5.97
2022-11-18T23:06:35.985Z,6.45
2022-11-18T23:09:09.881Z,7.53
2022-11-18T23:12:01.675Z,7.20
2022-11-18T23:14:34.138Z,6.20
2022-11-18T23:17:06.908Z,10.73
2022-11-18T23:19:43.637Z,15.98
2022-11-18T23:22:16.428Z,13.00
2022-11-18T23:24:48.953Z,12.55
2022-11-18T23:27:21.743Z,11.60
2022-11-18T23:29:56.082Z,14.20
2022-11-18T23:32:31.346Z,7.88
2022-11-18T23:35:05.911Z,12.93
2022-11-18T23:37:38.638Z,14.30
2022-11-18T23:40:11.807Z,12.43
2022-11-18T23:42:44.677Z,8.90
2022-11-18T23:45:17.394Z,10.68
2022-11-18T23:47:50.610Z,11.35
2022-11-18T23:50:23.169Z,11.70
2022-11-18T23:52:56.046Z,10.60
2022-11-18T23:55:28.547Z,12.13
2022-11-18T23:58:01.626Z,14.00
